Pisces — WTDL — position and weather

sailwx.info

Track history (hours):
 
Tides and Currents Weather Stations Pressure Air Temp Water Temp Dewpoint Dewpoint Depression Visibility Wind Speed Wind Dir Waves Ship Positions

Oceanographic research ship Pisces (USA)

Last reported at 2017-Jul-16 19:08 UTC. Time now 2017-Jul-24 08:32 UTC.
Position N 34°34' W 076°13'.

Type: Other ship. MMSI: 369970145.

Date/timePositionNaut miles runAvg speedWind from/ knotsBaromVisibWave heightAir tempDewpointWater temp
2017-Jul-16 19:08N 34°34' W 076°13'0 2.9
2017-Jul-16 18:58N 34°35' W 076°13'1 1.0
2017-Jul-16 18:01N 34°35' W 076°12'0 8.5
2017-Jul-16 18:01N 34°35' W 076°12'0 0.3
2017-Jul-16 17:00N 34°36' W 076°12'2 2.5
2017-Jul-16 16:06N 34°34' W 076°14'0 1.1
2017-Jul-16 15:51N 34°34' W 076°13'0 0.5
2017-Jul-16 14:57N 34°34' W 076°14'0 0.3
2017-Jul-16 14:12N 34°34' W 076°14'0 0.5
2017-Jul-16 13:44N 34°34' W 076°13'1 1.0
2017-Jul-16 13:10N 34°34' W 076°13'0 1.8
2017-Jul-16 12:55N 34°34' W 076°12'1 1.1
2017-Jul-16 11:59N 34°34' W 076°13'1 1.1
2017-Jul-16 11:29N 34°34' W 076°13'1 1.9
2017-Jul-16 10:59N 34°34' W 076°12'1 1.4
2017-Jul-16 10:31N 34°33' W 076°12'11 9.4
2017-Jul-16 09:23N 34°23' W 076°18'0 0.8
2017-Jul-16 08:50N 34°23' W 076°18'1 1.3
2017-Jul-16 07:54N 34°24' W 076°17'1 0.4
2017-Jul-16 06:41N 34°23' W 076°17'1 6.1
2017-Jul-16 06:29N 34°23' W 076°18'2 1.9
2017-Jul-16 05:37N 34°24' W 076°17'1 6.1
2017-Jul-16 05:30N 34°23' W 076°17'0 0.2
2017-Jul-16 04:18N 34°23' W 076°18'1 0.8
2017-Jul-16 03:13N 34°23' W 076°17'2 7.9
2017-Jul-16 02:59N 34°22' W 076°18'2 2.3
2017-Jul-16 02:12N 34°23' W 076°17'1 7.0
2017-Jul-16 02:00N 34°22' W 076°18'1 1.3
2017-Jul-16 01:08N 34°23' W 076°17'9 3.4
2017-Jul-15 22:39N 34°32' W 076°16'0 0.5
2017-Jul-15 21:57N 34°32' W 076°15'0 0.1
2017-Jul-15 21:30N 34°32' W 076°15'1 1.2
2017-Jul-15 21:01N 34°31' W 076°16'3 1.7
2017-Jul-15 19:23N 34°33' W 076°13'1 0.3
2017-Jul-15 15:12N 34°32' W 076°14'1 1.0
2017-Jul-15 13:56N 34°34' W 076°15'1 1.1
2017-Jul-15 12:36N 34°33' W 076°13'2 7.5
2017-Jul-15 12:22N 34°34' W 076°15'2 2.2
2017-Jul-15 11:30N 34°33' W 076°13'0 0.9
2017-Jul-15 11:01N 34°33' W 076°13'2 3.7
2017-Jul-15 10:28N 34°32' W 076°14'6 9.6
2017-Jul-15 09:48N 34°26' W 076°17'3 9.7
2017-Jul-15 09:28N 34°23' W 076°18'2 2.1
2017-Jul-15 08:41N 34°23' W 076°16'0 0.2
2017-Jul-15 07:27N 34°23' W 076°17'3 6.3
2017-Jul-15 06:57N 34°21' W 076°19'510.1
2017-Jul-15 06:29N 34°17' W 076°22'2 2.1
2017-Jul-15 05:28N 34°15' W 076°22'1 0.4
2017-Jul-15 04:13N 34°14' W 076°23'0 0.2
2017-Jul-15 03:04N 34°14' W 076°23'2 7.6
2017-Jul-15 02:49N 34°13' W 076°25'2 3.0
2017-Jul-15 02:02N 34°15' W 076°23'2 6.8
2017-Jul-15 01:47N 34°14' W 076°24'1 2.5
2017-Jul-15 01:31N 34°14' W 076°25'1 2.1
2017-Jul-15 00:51N 34°14' W 076°24'8 2.7
2017-Jul-14 22:05N 34°22' W 076°22'0 0.5
2017-Jul-14 21:55N 34°22' W 076°22'1 1.8
2017-Jul-14 21:27N 34°21' W 076°22'1 1.4
2017-Jul-14 20:52N 34°22' W 076°23'2 6.0
2017-Jul-14 20:31N 34°20' W 076°24'612.8
2017-Jul-14 20:00N 34°20' W 076°31'611.8
2017-Jul-14 19:27N 34°23' W 076°38'612.0
2017-Jul-14 18:56N 34°29' W 076°40'511.6
2017-Jul-14 18:30N 34°34' W 076°42'1 2.0
2017-Jul-14 18:00N 34°35' W 076°42'0 0.0
2017-Jul-14 17:31N 34°35' W 076°42'0 0.0
2017-Jul-14 17:00N 34°35' W 076°42'0 0.0
2017-Jul-14 16:30N 34°35' W 076°42'0 0.1
2017-Jul-14 16:01N 34°35' W 076°42'0 0.0
2017-Jul-14 15:30N 34°35' W 076°42'0 0.0
2017-Jul-14 15:00N 34°35' W 076°42'0 0.0
2017-Jul-14 14:30N 34°35' W 076°42'0 0.6
2017-Jul-14 14:00N 34°35' W 076°43'3 5.9
2017-Jul-14 13:30N 34°33' W 076°45'4 7.5
2017-Jul-14 13:00N 34°30' W 076°48'2 1.9
2017-Jul-14 12:04N 34°28' W 076°49'0 6.3
2017-Jul-14 12:00N 34°28' W 076°49'1 2.2
2017-Jul-14 11:20N 34°28' W 076°51'511.6
2017-Jul-14 10:54N 34°24' W 076°48'512.5 250 / 121020.6 27.925.424.7
2017-Jul-14 10:29N 34°28' W 076°51'5 8.4
2017-Jul-14 09:54N 34°24' W 076°48'524.5 250 / 131020.5 27.925.324.7
2017-Jul-14 09:41N 34°28' W 076°52'5 6.7
2017-Jul-14 08:55N 34°24' W 076°48'5 5.0 250 / 121020.1 28.125.525.0
2017-Jul-14 07:56N 34°24' W 076°54'5 5.0 240 / 131020.0 29.625.525.2
2017-Jul-14 06:57N 34°24' W 076°48'443.0 220 / 171020.0 28.325.224.7
2017-Jul-14 06:51N 34°27' W 076°49'2 4.9
2017-Jul-14 06:29N 34°28' W 076°47'1 2.9
2017-Jul-14 06:00N 34°28' W 076°49'487.4
2017-Jul-14 05:58N 34°24' W 076°48'510.8 240 / 141020.4 28.425.324.7
2017-Jul-14 05:27N 34°27' W 076°53'3 7.3
2017-Jul-14 04:59N 34°24' W 076°54'7 5.9 220 / 211020.2 28.625.025.1
2017-Jul-14 03:51N 34°28' W 076°48'1 3.6
2017-Jul-14 03:30N 34°28' W 076°46'3 6.5
2017-Jul-14 02:59N 34°27' W 076°50'3 6.6
2017-Jul-14 02:30N 34°27' W 076°54'4 3.1
2017-Jul-14 01:18N 34°27' W 076°49'2 4.8
2017-Jul-14 00:54N 34°28' W 076°47'1 2.0
2017-Jul-14 00:30N 34°28' W 076°46'1 0.5
2017-Jul-13 23:16N 34°28' W 076°46'0 0.5
2017-Jul-13 23:00N 34°28' W 076°46'412.8
2017-Jul-13 22:42N 34°24' W 076°48'317.5 220 / 121020.1 28.424.725.1
2017-Jul-13 22:30N 34°27' W 076°49'7 8.4
2017-Jul-13 21:43N 34°24' W 076°42'519.3 190 / 171019.9 28.424.925.0
2017-Jul-13 21:28N 34°28' W 076°45'2 5.1
2017-Jul-13 21:00N 34°27' W 076°48'311.6
2017-Jul-13 20:44N 34°24' W 076°48'4 5.0 190 / 171019.6 28.424.825.1
2017-Jul-13 19:54N 34°28' W 076°46'530.5
2017-Jul-13 19:45N 34°24' W 076°42'521.5 200 / 161020.5 28.424.325.1
2017-Jul-13 19:30N 34°29' W 076°44'3 6.5
2017-Jul-13 19:00N 34°31' W 076°41'519.1
2017-Jul-13 18:46N 34°30' W 076°36'520.0 210 / 161021.3 29.024.225.4
2017-Jul-13 18:30N 34°34' W 076°40'0 0.3
2017-Jul-13 18:00N 34°34' W 076°40'520.6
2017-Jul-13 17:46N 34°30' W 076°36'520.1 220 / 141021.7 29.224.625.4
2017-Jul-13 17:30N 34°34' W 076°40'0 0.1
2017-Jul-13 17:01N 34°34' W 076°40'523.8
2017-Jul-13 16:48N 34°30' W 076°36'518.5 070 / 131022.3 28.324.825.4
2017-Jul-13 16:30N 34°34' W 076°40'0 0.7
2017-Jul-13 16:01N 34°34' W 076°41'627.9
2017-Jul-13 15:49N 34°30' W 076°36'618.5 240 / 101022.6 28.324.525.3
2017-Jul-13 15:30N 34°34' W 076°41'0 0.4
2017-Jul-13 15:00N 34°34' W 076°41'631.8
2017-Jul-13 14:50N 34°30' W 076°36'413.4 200 / 61022.0 27.924.725.1
2017-Jul-13 14:30N 34°32' W 076°41'3 6.2
2017-Jul-13 13:59N 34°29' W 076°40'634.6
2017-Jul-13 13:50N 34°24' W 076°36'8 7.9 240 / 111021.8 27.924.724.6
2017-Jul-13 12:51N 34°18' W 076°30'1010.1 230 / 121021.5 28.224.325.2
2017-Jul-13 11:52N 34°18' W 076°18'1212.2 240 / 101022.0 28.223.825.1
2017-Jul-13 10:53N 34°30' W 076°18'8 9.5 230 / 81021.6 27.424.724.0
2017-Jul-13 10:02N 34°38' W 076°19'0 5.8
2017-Jul-13 10:00N 34°38' W 076°19'217.8
2017-Jul-13 09:54N 34°36' W 076°18'2 2.5 230 / 91021.4 28.224.424.6
2017-Jul-13 08:59N 34°38' W 076°18'228.8
2017-Jul-13 08:55N 34°36' W 076°18'3 7.9 230 / 111021.0 27.824.724.7
2017-Jul-13 08:30N 34°37' W 076°22'3 5.4
2017-Jul-13 07:56N 34°36' W 076°18'3 7.5 240 / 101021.1 28.525.024.7
2017-Jul-13 07:30N 34°37' W 076°22'2 4.8
2017-Jul-13 07:00N 34°35' W 076°22'6111.4
2017-Jul-13 06:57N 34°30' W 076°18'716.9 210 / 151021.3 28.024.924.6
2017-Jul-13 06:30N 34°36' W 076°24'1 1.3
2017-Jul-13 05:58N 34°35' W 076°23'7613.5
2017-Jul-13 05:58N 34°30' W 076°18'612.3 230 / 131021.4 28.225.024.7
2017-Jul-13 05:30N 34°35' W 076°22'2 3.2
2017-Jul-13 05:00N 34°35' W 076°24'7213.5
2017-Jul-13 04:59N 34°30' W 076°18'613.1 200 / 161021.0 28.125.024.7
2017-Jul-13 04:29N 34°35' W 076°23'1 2.0
2017-Jul-13 03:59N 34°34' W 076°22'2 3.7
2017-Jul-13 03:30N 34°35' W 076°24'1 1.7
2017-Jul-13 02:58N 34°35' W 076°23'1 1.5
2017-Jul-13 02:29N 34°34' W 076°22'3 7.0
2017-Jul-13 02:00N 34°32' W 076°25'1 2.1
2017-Jul-13 01:30N 34°33' W 076°24'1 0.9
2017-Jul-13 00:57N 34°33' W 076°24'2 4.4
2017-Jul-13 00:31N 34°31' W 076°25'2 5.0
2017-Jul-13 00:00N 34°34' W 076°24'2 4.9
2017-Jul-12 23:30N 34°31' W 076°24'1 2.8
2017-Jul-12 23:01N 34°33' W 076°24'1 1.3
2017-Jul-12 22:30N 34°32' W 076°24'0 0.9
2017-Jul-12 22:00N 34°32' W 076°24'0 0.8
2017-Jul-12 21:31N 34°33' W 076°24'1 1.7
2017-Jul-12 21:00N 34°32' W 076°23'1 1.5
2017-Jul-12 20:30N 34°33' W 076°24'5 7.5
2017-Jul-12 19:51N 34°35' W 076°19'0 1.1
2017-Jul-12 19:30N 34°35' W 076°19'0 0.9
2017-Jul-12 19:01N 34°36' W 076°19'0 0.9
2017-Jul-12 18:29N 34°36' W 076°19'0 0.7
2017-Jul-12 17:59N 34°35' W 076°19'0 0.4
2017-Jul-12 17:24N 34°36' W 076°19'4 8.0
2017-Jul-12 16:55N 34°32' W 076°21'1 2.1
2017-Jul-12 16:31N 34°33' W 076°20'1 1.3
2017-Jul-12 16:00N 34°33' W 076°20'1 1.4
2017-Jul-12 15:29N 34°34' W 076°20'2 3.4
2017-Jul-12 14:50N 34°32' W 076°21'2 1.9
2017-Jul-12 14:01N 34°33' W 076°20'2 4.0
2017-Jul-12 13:31N 34°31' W 076°21'0 0.8
2017-Jul-12 12:55N 34°31' W 076°21'0 0.3
2017-Jul-12 12:06N 34°31' W 076°22'1 2.7
2017-Jul-12 11:47N 34°32' W 076°21'1 2.1
2017-Jul-12 11:30N 34°31' W 076°21'1 0.8
2017-Jul-12 10:29N 34°31' W 076°21'2 4.2
2017-Jul-12 10:01N 34°29' W 076°20'12 1.2
2017-Jul-12 00:09N 34°17' W 076°19'3 6.8
2017-Jul-11 23:46N 34°15' W 076°21'2 6.7
2017-Jul-11 23:29N 34°14' W 076°22'15 2.0
2017-Jul-11 16:12N 34°24' W 076°34'10 9.7
2017-Jul-11 15:09N 34°33' W 076°40'212.1
2017-Jul-11 15:00N 34°35' W 076°41'611.7
2017-Jul-11 14:30N 34°41' W 076°40'3 5.3
2017-Jul-11 13:59N 34°43' W 076°42'0 0.0
2017-Jul-11 13:29N 34°43' W 076°42'0 0.0
2017-Jul-11 12:59N 34°43' W 076°42'0 0.0
2017-Jul-11 12:29N 34°43' W 076°42'0 0.0
2017-Jul-11 11:59N 34°43' W 076°42'0 0.0
2017-Jul-11 11:29N 34°43' W 076°42'0 0.0
2017-Jul-11 10:59N 34°43' W 076°42'0 0.0
2017-Jul-11 10:23N 34°43' W 076°42'0 0.0
2017-Jul-11 09:59N 34°43' W 076°42'0 0.0
2017-Jul-11 09:29N 34°43' W 076°42'0 0.0
2017-Jul-11 08:59N 34°43' W 076°42'0 0.0
2017-Jul-11 08:29N 34°43' W 076°42'0 0.0
2017-Jul-11 07:59N 34°43' W 076°42'0 0.0
2017-Jul-11 07:29N 34°43' W 076°42'0 0.0
2017-Jul-11 06:59N 34°43' W 076°42'0 0.0
2017-Jul-11 06:29N 34°43' W 076°42'0 0.0
2017-Jul-11 05:59N 34°43' W 076°42'0 0.0
2017-Jul-11 05:29N 34°43' W 076°42'0 0.0
2017-Jul-11 04:59N 34°43' W 076°42'0 0.0
2017-Jul-11 04:29N 34°43' W 076°42'0 0.0
2017-Jul-11 03:59N 34°43' W 076°42'0 0.0
2017-Jul-11 03:29N 34°43' W 076°42'0 0.0
2017-Jul-11 02:59N 34°43' W 076°42'0 0.0
2017-Jul-11 02:29N 34°43' W 076°42'0 0.0
2017-Jul-11 01:59N 34°43' W 076°42'0 0.0
2017-Jul-11 01:29N 34°43' W 076°42'0 0.0
2017-Jul-11 00:59N 34°43' W 076°42'0 0.0
2017-Jul-11 00:29N 34°43' W 076°42'0 0.0
2017-Jul-10 23:59N 34°43' W 076°42'0 0.0
2017-Jul-10 23:29N 34°43' W 076°42'0 0.0
2017-Jul-10 22:59N 34°43' W 076°42'0 0.0
2017-Jul-10 22:29N 34°43' W 076°42'0 0.0
2017-Jul-10 21:59N 34°43' W 076°42'0 0.0
2017-Jul-10 21:29N 34°43' W 076°42'0 0.0
2017-Jul-10 20:59N 34°43' W 076°42'0 0.0
2017-Jul-10 20:29N 34°43' W 076°42'0 0.0
2017-Jul-10 19:59N 34°43' W 076°42'0 0.0
2017-Jul-10 19:29N 34°43' W 076°42'0 0.0
2017-Jul-10 18:59N 34°43' W 076°42'0 0.0
2017-Jul-10 18:29N 34°43' W 076°42'0 0.0
2017-Jul-10 17:59N 34°43' W 076°42'0 0.0
2017-Jul-10 17:29N 34°43' W 076°42'0 0.0
2017-Jul-10 16:59N 34°43' W 076°42'0 0.0
2017-Jul-10 16:29N 34°43' W 076°42'0 0.0
2017-Jul-10 15:59N 34°43' W 076°42'0 0.0
2017-Jul-10 15:29N 34°43' W 076°42'0 0.0
2017-Jul-10 14:59N 34°43' W 076°42'0 0.0
2017-Jul-10 14:29N 34°43' W 076°42'0 0.0
2017-Jul-10 13:59N 34°43' W 076°42'0 0.0
2017-Jul-10 13:29N 34°43' W 076°42'0 0.0
2017-Jul-10 12:59N 34°43' W 076°42'0 0.0
2017-Jul-10 12:29N 34°43' W 076°42'0 0.0
2017-Jul-10 11:59N 34°43' W 076°42'0 0.0
2017-Jul-10 11:29N 34°43' W 076°42'0 0.0
2017-Jul-10 10:59N 34°43' W 076°42'0 0.0
2017-Jul-10 10:29N 34°43' W 076°42'0 0.0
2017-Jul-10 09:59N 34°43' W 076°42'0 0.0
2017-Jul-10 09:29N 34°43' W 076°42'0 0.0
2017-Jul-10 08:59N 34°43' W 076°42'0 0.0
2017-Jul-10 08:29N 34°43' W 076°42'0 0.0
2017-Jul-10 07:59N 34°43' W 076°42'0 0.0
2017-Jul-10 07:29N 34°43' W 076°42'0 0.0
2017-Jul-10 06:59N 34°43' W 076°42'0 0.0
2017-Jul-10 06:29N 34°43' W 076°42'0 0.0
2017-Jul-10 05:59N 34°43' W 076°42'0 0.0
2017-Jul-10 05:29N 34°43' W 076°42'0 0.0
2017-Jul-10 04:59N 34°43' W 076°42'0 0.0
2017-Jul-10 04:29N 34°43' W 076°42'0 0.0
2017-Jul-10 03:59N 34°43' W 076°42'0 0.0
2017-Jul-10 03:29N 34°43' W 076°42'0 0.0
2017-Jul-10 02:59N 34°43' W 076°42'0 0.0
2017-Jul-10 02:29N 34°43' W 076°42'0 0.0
2017-Jul-10 01:59N 34°43' W 076°42'0 0.0
2017-Jul-10 01:29N 34°43' W 076°42'0 0.0
2017-Jul-10 00:59N 34°43' W 076°42'0 0.0
2017-Jul-10 00:29N 34°43' W 076°42'0 0.0
2017-Jul-09 23:59N 34°43' W 076°42'0 0.0
2017-Jul-09 23:29N 34°43' W 076°42'0 0.0
2017-Jul-09 22:59N 34°43' W 076°42'0 0.0
2017-Jul-09 22:29N 34°43' W 076°42'0 0.0
2017-Jul-09 21:59N 34°43' W 076°42'0 0.0
2017-Jul-09 21:29N 34°43' W 076°42'0 0.0
2017-Jul-09 20:59N 34°43' W 076°42'0 0.0
2017-Jul-09 20:29N 34°43' W 076°42'0 0.0
2017-Jul-09 19:59N 34°43' W 076°42'0 0.0
2017-Jul-09 19:29N 34°43' W 076°42'0 0.0
2017-Jul-09 18:59N 34°43' W 076°42'0 0.4
2017-Jul-09 18:30N 34°43' W 076°42'4 7.6
2017-Jul-09 18:00N 34°39' W 076°41'511.0
2017-Jul-09 17:30N 34°34' W 076°42'4 8.5
2017-Jul-09 17:00N 34°30' W 076°44'712.5
2017-Jul-09 16:25N 34°23' W 076°48'20012.8
2017-Jul-09 00:49N 31°47' W 079°17'515.5
2017-Jul-09 00:30N 31°44' W 079°21'815.7
2017-Jul-08 23:58N 31°38' W 079°28'715.4
2017-Jul-08 23:30N 31°33' W 079°34'1013.8
2017-Jul-08 22:48N 31°26' W 079°42'413.1
2017-Jul-08 22:31N 31°23' W 079°46'5 9.3
2017-Jul-08 22:00N 31°20' W 079°49'612.4
2017-Jul-08 21:30N 31°16' W 079°55'814.0
2017-Jul-08 20:55N 31°10' W 080°02'8013.3
2017-Jul-08 14:57N 30°18' W 081°12'1212.2 190 / 51018.5 27.724.023.4
2017-Jul-08 13:58N 30°24' W 081°24'0 0.0 250 / 71018.6 29.623.524.1
2017-Jul-08 12:59N 30°24' W 081°24'   280 / 61018.7 28.823.824.6
Track history (hours):
 
Tides and Currents Weather Stations Pressure Air Temp Water Temp Dewpoint Dewpoint Depression Visibility Wind Speed Wind Dir Waves Ship Positions

Oceanographic research ship Pisces (USA)

Last reported at 2017-Jul-16 19:08 UTC. Time now 2017-Jul-24 08:32 UTC.
Position N 34°34' W 076°13'.

Type: Other ship. MMSI: 369970145.

Date/timePositionNaut miles runAvg speedWind from/ knotsBaromVisibWave heightAir tempDewpointWater temp
2017-Jul-16 19:08N 34°34' W 076°13'0 2.9
2017-Jul-16 18:58N 34°35' W 076°13'1 1.0
2017-Jul-16 18:01N 34°35' W 076°12'0 8.5
2017-Jul-16 18:01N 34°35' W 076°12'0 0.3
2017-Jul-16 17:00N 34°36' W 076°12'2 2.5
2017-Jul-16 16:06N 34°34' W 076°14'0 1.1
2017-Jul-16 15:51N 34°34' W 076°13'0 0.5
2017-Jul-16 14:57N 34°34' W 076°14'0 0.3
2017-Jul-16 14:12N 34°34' W 076°14'0 0.5
2017-Jul-16 13:44N 34°34' W 076°13'1 1.0
2017-Jul-16 13:10N 34°34' W 076°13'0 1.8
2017-Jul-16 12:55N 34°34' W 076°12'1 1.1
2017-Jul-16 11:59N 34°34' W 076°13'1 1.1
2017-Jul-16 11:29N 34°34' W 076°13'1 1.9
2017-Jul-16 10:59N 34°34' W 076°12'1 1.4
2017-Jul-16 10:31N 34°33' W 076°12'11 9.4
2017-Jul-16 09:23N 34°23' W 076°18'0 0.8
2017-Jul-16 08:50N 34°23' W 076°18'1 1.3
2017-Jul-16 07:54N 34°24' W 076°17'1 0.4
2017-Jul-16 06:41N 34°23' W 076°17'1 6.1
2017-Jul-16 06:29N 34°23' W 076°18'2 1.9
2017-Jul-16 05:37N 34°24' W 076°17'1 6.1
2017-Jul-16 05:30N 34°23' W 076°17'0 0.2
2017-Jul-16 04:18N 34°23' W 076°18'1 0.8
2017-Jul-16 03:13N 34°23' W 076°17'2 7.9
2017-Jul-16 02:59N 34°22' W 076°18'2 2.3
2017-Jul-16 02:12N 34°23' W 076°17'1 7.0
2017-Jul-16 02:00N 34°22' W 076°18'1 1.3
2017-Jul-16 01:08N 34°23' W 076°17'9 3.4
2017-Jul-15 22:39N 34°32' W 076°16'0 0.5
2017-Jul-15 21:57N 34°32' W 076°15'0 0.1
2017-Jul-15 21:30N 34°32' W 076°15'1 1.2
2017-Jul-15 21:01N 34°31' W 076°16'3 1.7
2017-Jul-15 19:23N 34°33' W 076°13'1 0.3
2017-Jul-15 15:12N 34°32' W 076°14'1 1.0
2017-Jul-15 13:56N 34°34' W 076°15'1 1.1
2017-Jul-15 12:36N 34°33' W 076°13'2 7.5
2017-Jul-15 12:22N 34°34' W 076°15'2 2.2
2017-Jul-15 11:30N 34°33' W 076°13'0 0.9
2017-Jul-15 11:01N 34°33' W 076°13'2 3.7
2017-Jul-15 10:28N 34°32' W 076°14'6 9.6
2017-Jul-15 09:48N 34°26' W 076°17'3 9.7
2017-Jul-15 09:28N 34°23' W 076°18'2 2.1
2017-Jul-15 08:41N 34°23' W 076°16'0 0.2
2017-Jul-15 07:27N 34°23' W 076°17'3 6.3
2017-Jul-15 06:57N 34°21' W 076°19'510.1
2017-Jul-15 06:29N 34°17' W 076°22'2 2.1
2017-Jul-15 05:28N 34°15' W 076°22'1 0.4
2017-Jul-15 04:13N 34°14' W 076°23'0 0.2
2017-Jul-15 03:04N 34°14' W 076°23'2 7.6
2017-Jul-15 02:49N 34°13' W 076°25'2 3.0
2017-Jul-15 02:02N 34°15' W 076°23'2 6.8
2017-Jul-15 01:47N 34°14' W 076°24'1 2.5
2017-Jul-15 01:31N 34°14' W 076°25'1 2.1
2017-Jul-15 00:51N 34°14' W 076°24'8 2.7
2017-Jul-14 22:05N 34°22' W 076°22'0 0.5
2017-Jul-14 21:55N 34°22' W 076°22'1 1.8
2017-Jul-14 21:27N 34°21' W 076°22'1 1.4
2017-Jul-14 20:52N 34°22' W 076°23'2 6.0
2017-Jul-14 20:31N 34°20' W 076°24'612.8
2017-Jul-14 20:00N 34°20' W 076°31'611.8
2017-Jul-14 19:27N 34°23' W 076°38'612.0
2017-Jul-14 18:56N 34°29' W 076°40'511.6
2017-Jul-14 18:30N 34°34' W 076°42'1 2.0
2017-Jul-14 18:00N 34°35' W 076°42'0 0.0
2017-Jul-14 17:31N 34°35' W 076°42'0 0.0
2017-Jul-14 17:00N 34°35' W 076°42'0 0.0
2017-Jul-14 16:30N 34°35' W 076°42'0 0.1
2017-Jul-14 16:01N 34°35' W 076°42'0 0.0
2017-Jul-14 15:30N 34°35' W 076°42'0 0.0
2017-Jul-14 15:00N 34°35' W 076°42'0 0.0
2017-Jul-14 14:30N 34°35' W 076°42'0 0.6
2017-Jul-14 14:00N 34°35' W 076°43'3 5.9
2017-Jul-14 13:30N 34°33' W 076°45'4 7.5
2017-Jul-14 13:00N 34°30' W 076°48'2 1.9
2017-Jul-14 12:04N 34°28' W 076°49'0 6.3
2017-Jul-14 12:00N 34°28' W 076°49'1 2.2
2017-Jul-14 11:20N 34°28' W 076°51'511.6
2017-Jul-14 10:54N 34°24' W 076°48'512.5 250 / 121020.6 27.925.424.7
2017-Jul-14 10:29N 34°28' W 076°51'5 8.4
2017-Jul-14 09:54N 34°24' W 076°48'524.5 250 / 131020.5 27.925.324.7
2017-Jul-14 09:41N 34°28' W 076°52'5 6.7
2017-Jul-14 08:55N 34°24' W 076°48'5 5.0 250 / 121020.1 28.125.525.0
2017-Jul-14 07:56N 34°24' W 076°54'5 5.0 240 / 131020.0 29.625.525.2
2017-Jul-14 06:57N 34°24' W 076°48'443.0 220 / 171020.0 28.325.224.7
2017-Jul-14 06:51N 34°27' W 076°49'2 4.9
2017-Jul-14 06:29N 34°28' W 076°47'1 2.9
2017-Jul-14 06:00N 34°28' W 076°49'487.4
2017-Jul-14 05:58N 34°24' W 076°48'510.8 240 / 141020.4 28.425.324.7
2017-Jul-14 05:27N 34°27' W 076°53'3 7.3
2017-Jul-14 04:59N 34°24' W 076°54'7 5.9 220 / 211020.2 28.625.025.1
2017-Jul-14 03:51N 34°28' W 076°48'1 3.6
2017-Jul-14 03:30N 34°28' W 076°46'3 6.5
2017-Jul-14 02:59N 34°27' W 076°50'3 6.6
2017-Jul-14 02:30N 34°27' W 076°54'4 3.1
2017-Jul-14 01:18N 34°27' W 076°49'2 4.8
2017-Jul-14 00:54N 34°28' W 076°47'1 2.0
2017-Jul-14 00:30N 34°28' W 076°46'1 0.5
2017-Jul-13 23:16N 34°28' W 076°46'0 0.5
2017-Jul-13 23:00N 34°28' W 076°46'412.8
2017-Jul-13 22:42N 34°24' W 076°48'317.5 220 / 121020.1 28.424.725.1
2017-Jul-13 22:30N 34°27' W 076°49'7 8.4
2017-Jul-13 21:43N 34°24' W 076°42'519.3 190 / 171019.9 28.424.925.0
2017-Jul-13 21:28N 34°28' W 076°45'2 5.1
2017-Jul-13 21:00N 34°27' W 076°48'311.6
2017-Jul-13 20:44N 34°24' W 076°48'4 5.0 190 / 171019.6 28.424.825.1
2017-Jul-13 19:54N 34°28' W 076°46'530.5
2017-Jul-13 19:45N 34°24' W 076°42'521.5 200 / 161020.5 28.424.325.1
2017-Jul-13 19:30N 34°29' W 076°44'3 6.5
2017-Jul-13 19:00N 34°31' W 076°41'519.1
2017-Jul-13 18:46N 34°30' W 076°36'520.0 210 / 161021.3 29.024.225.4
2017-Jul-13 18:30N 34°34' W 076°40'0 0.3
2017-Jul-13 18:00N 34°34' W 076°40'520.6
2017-Jul-13 17:46N 34°30' W 076°36'520.1 220 / 141021.7 29.224.625.4
2017-Jul-13 17:30N 34°34' W 076°40'0 0.1
2017-Jul-13 17:01N 34°34' W 076°40'523.8
2017-Jul-13 16:48N 34°30' W 076°36'518.5 070 / 131022.3 28.324.825.4
2017-Jul-13 16:30N 34°34' W 076°40'0 0.7
2017-Jul-13 16:01N 34°34' W 076°41'627.9
2017-Jul-13 15:49N 34°30' W 076°36'618.5 240 / 101022.6 28.324.525.3
2017-Jul-13 15:30N 34°34' W 076°41'0 0.4
2017-Jul-13 15:00N 34°34' W 076°41'631.8
2017-Jul-13 14:50N 34°30' W 076°36'413.4 200 / 61022.0 27.924.725.1
2017-Jul-13 14:30N 34°32' W 076°41'3 6.2
2017-Jul-13 13:59N 34°29' W 076°40'634.6
2017-Jul-13 13:50N 34°24' W 076°36'8 7.9 240 / 111021.8 27.924.724.6
2017-Jul-13 12:51N 34°18' W 076°30'1010.1 230 / 121021.5 28.224.325.2
2017-Jul-13 11:52N 34°18' W 076°18'1212.2 240 / 101022.0 28.223.825.1
2017-Jul-13 10:53N 34°30' W 076°18'8 9.5 230 / 81021.6 27.424.724.0
2017-Jul-13 10:02N 34°38' W 076°19'0 5.8
2017-Jul-13 10:00N 34°38' W 076°19'217.8
2017-Jul-13 09:54N 34°36' W 076°18'2 2.5 230 / 91021.4 28.224.424.6
2017-Jul-13 08:59N 34°38' W 076°18'228.8
2017-Jul-13 08:55N 34°36' W 076°18'3 7.9 230 / 111021.0 27.824.724.7
2017-Jul-13 08:30N 34°37' W 076°22'3 5.4
2017-Jul-13 07:56N 34°36' W 076°18'3 7.5 240 / 101021.1 28.525.024.7
2017-Jul-13 07:30N 34°37' W 076°22'2 4.8
2017-Jul-13 07:00N 34°35' W 076°22'6111.4
2017-Jul-13 06:57N 34°30' W 076°18'716.9 210 / 151021.3 28.024.924.6
2017-Jul-13 06:30N 34°36' W 076°24'1 1.3
2017-Jul-13 05:58N 34°35' W 076°23'7613.5
2017-Jul-13 05:58N 34°30' W 076°18'612.3 230 / 131021.4 28.225.024.7
2017-Jul-13 05:30N 34°35' W 076°22'2 3.2
2017-Jul-13 05:00N 34°35' W 076°24'7213.5
2017-Jul-13 04:59N 34°30' W 076°18'613.1 200 / 161021.0 28.125.024.7
2017-Jul-13 04:29N 34°35' W 076°23'1 2.0
2017-Jul-13 03:59N 34°34' W 076°22'2 3.7
2017-Jul-13 03:30N 34°35' W 076°24'1 1.7
2017-Jul-13 02:58N 34°35' W 076°23'1 1.5
2017-Jul-13 02:29N 34°34' W 076°22'3 7.0
2017-Jul-13 02:00N 34°32' W 076°25'1 2.1
2017-Jul-13 01:30N 34°33' W 076°24'1 0.9
2017-Jul-13 00:57N 34°33' W 076°24'2 4.4
2017-Jul-13 00:31N 34°31' W 076°25'2 5.0
2017-Jul-13 00:00N 34°34' W 076°24'2 4.9
2017-Jul-12 23:30N 34°31' W 076°24'1 2.8
2017-Jul-12 23:01N 34°33' W 076°24'1 1.3
2017-Jul-12 22:30N 34°32' W 076°24'0 0.9
2017-Jul-12 22:00N 34°32' W 076°24'0 0.8
2017-Jul-12 21:31N 34°33' W 076°24'1 1.7
2017-Jul-12 21:00N 34°32' W 076°23'1 1.5
2017-Jul-12 20:30N 34°33' W 076°24'5 7.5
2017-Jul-12 19:51N 34°35' W 076°19'0 1.1
2017-Jul-12 19:30N 34°35' W 076°19'0 0.9
2017-Jul-12 19:01N 34°36' W 076°19'0 0.9
2017-Jul-12 18:29N 34°36' W 076°19'0 0.7
2017-Jul-12 17:59N 34°35' W 076°19'0 0.4
2017-Jul-12 17:24N 34°36' W 076°19'4 8.0
2017-Jul-12 16:55N 34°32' W 076°21'1 2.1
2017-Jul-12 16:31N 34°33' W 076°20'1 1.3
2017-Jul-12 16:00N 34°33' W 076°20'1 1.4
2017-Jul-12 15:29N 34°34' W 076°20'2 3.4
2017-Jul-12 14:50N 34°32' W 076°21'2 1.9
2017-Jul-12 14:01N 34°33' W 076°20'2 4.0
2017-Jul-12 13:31N 34°31' W 076°21'0 0.8
2017-Jul-12 12:55N 34°31' W 076°21'0 0.3
2017-Jul-12 12:06N 34°31' W 076°22'1 2.7
2017-Jul-12 11:47N 34°32' W 076°21'1 2.1
2017-Jul-12 11:30N 34°31' W 076°21'1 0.8
2017-Jul-12 10:29N 34°31' W 076°21'2 4.2
2017-Jul-12 10:01N 34°29' W 076°20'12 1.2
2017-Jul-12 00:09N 34°17' W 076°19'3 6.8
2017-Jul-11 23:46N 34°15' W 076°21'2 6.7
2017-Jul-11 23:29N 34°14' W 076°22'15 2.0
2017-Jul-11 16:12N 34°24' W 076°34'10 9.7
2017-Jul-11 15:09N 34°33' W 076°40'212.1
2017-Jul-11 15:00N 34°35' W 076°41'611.7
2017-Jul-11 14:30N 34°41' W 076°40'3 5.3
2017-Jul-11 13:59N 34°43' W 076°42'0 0.0
2017-Jul-11 13:29N 34°43' W 076°42'0 0.0
2017-Jul-11 12:59N 34°43' W 076°42'0 0.0
2017-Jul-11 12:29N 34°43' W 076°42'0 0.0
2017-Jul-11 11:59N 34°43' W 076°42'0 0.0
2017-Jul-11 11:29N 34°43' W 076°42'0 0.0
2017-Jul-11 10:59N 34°43' W 076°42'0 0.0
2017-Jul-11 10:23N 34°43' W 076°42'0 0.0
2017-Jul-11 09:59N 34°43' W 076°42'0 0.0
2017-Jul-11 09:29N 34°43' W 076°42'0 0.0
2017-Jul-11 08:59N 34°43' W 076°42'0 0.0
2017-Jul-11 08:29N 34°43' W 076°42'0 0.0
2017-Jul-11 07:59N 34°43' W 076°42'0 0.0
2017-Jul-11 07:29N 34°43' W 076°42'0 0.0
2017-Jul-11 06:59N 34°43' W 076°42'0 0.0
2017-Jul-11 06:29N 34°43' W 076°42'0 0.0
2017-Jul-11 05:59N 34°43' W 076°42'0 0.0
2017-Jul-11 05:29N 34°43' W 076°42'0 0.0
2017-Jul-11 04:59N 34°43' W 076°42'0 0.0
2017-Jul-11 04:29N 34°43' W 076°42'0 0.0
2017-Jul-11 03:59N 34°43' W 076°42'0 0.0
2017-Jul-11 03:29N 34°43' W 076°42'0 0.0
2017-Jul-11 02:59N 34°43' W 076°42'0 0.0
2017-Jul-11 02:29N 34°43' W 076°42'0 0.0
2017-Jul-11 01:59N 34°43' W 076°42'0 0.0
2017-Jul-11 01:29N 34°43' W 076°42'0 0.0
2017-Jul-11 00:59N 34°43' W 076°42'0 0.0
2017-Jul-11 00:29N 34°43' W 076°42'0 0.0
2017-Jul-10 23:59N 34°43' W 076°42'0 0.0
2017-Jul-10 23:29N 34°43' W 076°42'0 0.0
2017-Jul-10 22:59N 34°43' W 076°42'0 0.0
2017-Jul-10 22:29N 34°43' W 076°42'0 0.0
2017-Jul-10 21:59N 34°43' W 076°42'0 0.0
2017-Jul-10 21:29N 34°43' W 076°42'0 0.0
2017-Jul-10 20:59N 34°43' W 076°42'0 0.0
2017-Jul-10 20:29N 34°43' W 076°42'0 0.0
2017-Jul-10 19:59N 34°43' W 076°42'0 0.0
2017-Jul-10 19:29N 34°43' W 076°42'0 0.0
2017-Jul-10 18:59N 34°43' W 076°42'0 0.0
2017-Jul-10 18:29N 34°43' W 076°42'0 0.0
2017-Jul-10 17:59N 34°43' W 076°42'0 0.0
2017-Jul-10 17:29N 34°43' W 076°42'0 0.0
2017-Jul-10 16:59N 34°43' W 076°42'0 0.0
2017-Jul-10 16:29N 34°43' W 076°42'0 0.0
2017-Jul-10 15:59N 34°43' W 076°42'0 0.0
2017-Jul-10 15:29N 34°43' W 076°42'0 0.0
2017-Jul-10 14:59N 34°43' W 076°42'0 0.0
2017-Jul-10 14:29N 34°43' W 076°42'0 0.0
2017-Jul-10 13:59N 34°43' W 076°42'0 0.0
2017-Jul-10 13:29N 34°43' W 076°42'0 0.0
2017-Jul-10 12:59N 34°43' W 076°42'0 0.0
2017-Jul-10 12:29N 34°43' W 076°42'0 0.0
2017-Jul-10 11:59N 34°43' W 076°42'0 0.0
2017-Jul-10 11:29N 34°43' W 076°42'0 0.0
2017-Jul-10 10:59N 34°43' W 076°42'0 0.0
2017-Jul-10 10:29N 34°43' W 076°42'0 0.0
2017-Jul-10 09:59N 34°43' W 076°42'0 0.0
2017-Jul-10 09:29N 34°43' W 076°42'0 0.0
2017-Jul-10 08:59N 34°43' W 076°42'0 0.0
2017-Jul-10 08:29N 34°43' W 076°42'0 0.0
2017-Jul-10 07:59N 34°43' W 076°42'0 0.0
2017-Jul-10 07:29N 34°43' W 076°42'0 0.0
2017-Jul-10 06:59N 34°43' W 076°42'0 0.0
2017-Jul-10 06:29N 34°43' W 076°42'0 0.0
2017-Jul-10 05:59N 34°43' W 076°42'0 0.0
2017-Jul-10 05:29N 34°43' W 076°42'0 0.0
2017-Jul-10 04:59N 34°43' W 076°42'0 0.0
2017-Jul-10 04:29N 34°43' W 076°42'0 0.0
2017-Jul-10 03:59N 34°43' W 076°42'0 0.0
2017-Jul-10 03:29N 34°43' W 076°42'0 0.0
2017-Jul-10 02:59N 34°43' W 076°42'0 0.0
2017-Jul-10 02:29N 34°43' W 076°42'0 0.0
2017-Jul-10 01:59N 34°43' W 076°42'0 0.0
2017-Jul-10 01:29N 34°43' W 076°42'0 0.0
2017-Jul-10 00:59N 34°43' W 076°42'0 0.0
2017-Jul-10 00:29N 34°43' W 076°42'0 0.0
2017-Jul-09 23:59N 34°43' W 076°42'0 0.0
2017-Jul-09 23:29N 34°43' W 076°42'0 0.0
2017-Jul-09 22:59N 34°43' W 076°42'0 0.0
2017-Jul-09 22:29N 34°43' W 076°42'0 0.0
2017-Jul-09 21:59N 34°43' W 076°42'0 0.0
2017-Jul-09 21:29N 34°43' W 076°42'0 0.0
2017-Jul-09 20:59N 34°43' W 076°42'0 0.0
2017-Jul-09 20:29N 34°43' W 076°42'0 0.0
2017-Jul-09 19:59N 34°43' W 076°42'0 0.0
2017-Jul-09 19:29N 34°43' W 076°42'0 0.0
2017-Jul-09 18:59N 34°43' W 076°42'0 0.4
2017-Jul-09 18:30N 34°43' W 076°42'4 7.6
2017-Jul-09 18:00N 34°39' W 076°41'511.0
2017-Jul-09 17:30N 34°34' W 076°42'4 8.5
2017-Jul-09 17:00N 34°30' W 076°44'712.5
2017-Jul-09 16:25N 34°23' W 076°48'20012.8
2017-Jul-09 00:49N 31°47' W 079°17'515.5
2017-Jul-09 00:30N 31°44' W 079°21'815.7
2017-Jul-08 23:58N 31°38' W 079°28'715.4
2017-Jul-08 23:30N 31°33' W 079°34'1013.8
2017-Jul-08 22:48N 31°26' W 079°42'413.1
2017-Jul-08 22:31N 31°23' W 079°46'5 9.3
2017-Jul-08 22:00N 31°20' W 079°49'612.4
2017-Jul-08 21:30N 31°16' W 079°55'814.0
2017-Jul-08 20:55N 31°10' W 080°02'8013.3
2017-Jul-08 14:57N 30°18' W 081°12'1212.2 190 / 51018.5 27.724.023.4
2017-Jul-08 13:58N 30°24' W 081°24'0 0.0 250 / 71018.6 29.623.524.1
2017-Jul-08 12:59N 30°24' W 081°24'   280 / 61018.7 28.823.824.6

Dump ship's entire track history